Time;durP1;ratioP1;P1;durP2;ratioP2;P2;SDS_P1;SDS_P2;PMS_P1;PMS_P2;Temp;Humidity;BMP_temperature;BMP_pressure;BME280_temperature;BME280_humidity;BME280_pressure;Samples;Min_cycle;Max_cycle;Signal;HPM_P1;HPM_P2
2023/11/23 16:47:07;;;;;;;29.50;11.20;;;;;;;;;;4873426;29;20065;-91
2023/11/23 16:49:37;;;;;;;24.15;9.15;;;;;;;;;;4859234;29;20049;-86
2023/11/23 16:52:09;;;;;;;5.32;2.10;;;;;;;;;;4844127;29;20516;-89
2023/11/23 16:54:41;;;;;;;4.80;1.45;;;;;;;;;;4847711;29;20050;-86
2023/11/23 16:57:12;;;;;;;5.07;1.95;;;;;;;;;;4852629;29;20428;-85
2023/11/23 16:59:47;;;;;;;4.78;2.03;;;;;;;;;;4879742;29;20389;-84
2023/11/23 17:02:18;;;;;;;3.53;1.73;;;;;;;;;;4872593;29;20492;-82
2023/11/23 17:04:50;;;;;;;6.00;2.03;;;;;;;;;;4847901;29;20050;-82
2023/11/23 17:07:23;;;;;;;4.05;1.35;;;;;;;;;;4878359;29;20052;-84
2023/11/23 17:09:56;;;;;;;3.10;1.40;;;;;;;;;;4879554;29;20057;-83
2023/11/23 17:12:26;;;;;;;5.68;1.52;;;;;;;;;;4879738;29;20045;-84
2023/11/23 17:14:56;;;;;;;4.25;1.40;;;;;;;;;;4859082;29;20089;-84
2023/11/23 17:17:27;;;;;;;2.58;1.20;;;;;;;;;;4861377;29;20053;-86
2023/11/23 17:19:56;;;;;;;2.40;1.30;;;;;;;;;;4879897;29;20072;-86
2023/11/23 17:22:27;;;;;;;10.85;5.53;;;;;;;;;;4879934;29;20061;-87
2023/11/23 17:25:00;;;;;;;5.43;1.40;;;;;;;;;;4859962;29;20072;-83
2023/11/23 17:27:31;;;;;;;4.03;1.80;;;;;;;;;;4877897;29;20053;-85
2023/11/23 17:30:01;;;;;;;3.17;1.38;;;;;;;;;;4879914;29;20060;-83
2023/11/23 17:32:32;;;;;;;3.30;1.73;;;;;;;;;;4859294;29;20528;-83
2023/11/23 17:35:02;;;;;;;2.25;1.10;;;;;;;;;;4860964;29;20420;-82
2023/11/23 17:37:32;;;;;;;2.15;1.13;;;;;;;;;;4843545;29;20069;-83
2023/11/23 17:40:06;;;;;;;3.03;1.48;;;;;;;;;;4860277;29;20418;-81
2023/11/23 17:42:37;;;;;;;6.03;1.83;;;;;;;;;;4860925;29;20045;-83
2023/11/23 17:45:08;;;;;;;6.30;2.17;;;;;;;;;;4860943;29;20056;-82
2023/11/23 17:47:39;;;;;;;3.50;1.33;;;;;;;;;;4859085;29;20068;-84
2023/11/23 17:50:11;;;;;;;2.88;1.20;;;;;;;;;;4860415;29;20048;-84
2023/11/23 17:52:42;;;;;;;2.78;1.30;;;;;;;;;;4843603;29;20061;-82
2023/11/23 17:55:12;;;;;;;2.60;1.15;;;;;;;;;;4860834;29;20668;-83
2023/11/23 17:57:42;;;;;;;2.35;1.33;;;;;;;;;;4860646;29;20057;-84
2023/11/23 18:00:12;;;;;;;3.33;1.48;;;;;;;;;;4860840;29;20053;-84
2023/11/23 18:02:43;;;;;;;2.55;1.00;;;;;;;;;;4860133;29;20046;-85
2023/11/23 18:05:14;;;;;;;5.00;1.30;;;;;;;;;;4860291;29;20049;-84
2023/11/23 18:07:44;;;;;;;3.42;2.30;;;;;;;;;;4853433;29;20421;-83
2023/11/23 18:10:16;;;;;;;2.53;1.27;;;;;;;;;;4860471;29;20524;-84
2023/11/23 18:12:47;;;;;;;10.35;2.92;;;;;;;;;;4860899;29;20053;-85
2023/11/23 18:15:27;;;;;;;4.30;1.17;;;;;;;;;;4843010;29;20514;-84
2023/11/23 18:17:57;;;;;;;2.35;1.20;;;;;;;;;;4829624;29;20061;-84
2023/11/23 18:20:29;;;;;;;1.98;0.95;;;;;;;;;;4866746;29;20045;-84
2023/11/23 18:22:59;;;;;;;6.45;2.20;;;;;;;;;;4860470;29;20050;-82
2023/11/23 18:25:30;;;;;;;8.90;1.63;;;;;;;;;;4879014;29;20055;-82
2023/11/23 18:28:01;;;;;;;4.53;1.30;;;;;;;;;;4859468;29;20390;-83
2023/11/23 18:30:32;;;;;;;3.67;0.85;;;;;;;;;;4862590;29;20587;-84
2023/11/23 18:33:05;;;;;;;2.28;1.00;;;;;;;;;;4880273;29;20056;-82
2023/11/23 18:35:40;;;;;;;4.50;1.10;;;;;;;;;;4862755;29;20053;-84
2023/11/23 18:38:15;;;;;;;5.90;1.20;;;;;;;;;;4853786;29;20046;-85
2023/11/23 18:40:45;;;;;;;2.92;1.40;;;;;;;;;;4864816;29;20053;-85
2023/11/23 18:43:18;;;;;;;2.53;0.90;;;;;;;;;;4861776;29;20060;-86
2023/11/23 18:45:48;;;;;;;4.93;1.13;;;;;;;;;;4844611;29;20065;-86
2023/11/23 18:48:20;;;;;;;5.50;1.10;;;;;;;;;;4845103;29;20448;-85
2023/11/23 18:50:54;;;;;;;11.70;4.22;;;;;;;;;;4841263;29;20057;-83
2023/11/23 18:53:38;;;;;;;4.07;1.50;;;;;;;;;;4848014;29;20076;-87
2023/11/23 18:56:11;;;;;;;7.45;2.17;;;;;;;;;;4860243;29;20421;-84
2023/11/23 18:58:43;;;;;;;2.55;1.35;;;;;;;;;;4858994;29;20509;-84
2023/11/23 19:01:15;;;;;;;2.25;0.90;;;;;;;;;;4859523;29;20057;-84
2023/11/23 19:03:47;;;;;;;2.88;1.38;;;;;;;;;;4844077;29;20069;-84
2023/11/23 19:06:22;;;;;;;3.17;1.65;;;;;;;;;;4834666;29;20054;-86
2023/11/23 19:08:52;;;;;;;9.15;4.72;;;;;;;;;;4840762;29;20050;-84
2023/11/23 19:11:23;;;;;;;2.00;1.02;;;;;;;;;;4856098;29;20053;-84
2023/11/23 19:14:07;;;;;;;4.53;1.30;;;;;;;;;;4859743;29;20057;-84
2023/11/23 19:16:39;;;;;;;2.65;1.00;;;;;;;;;;4863263;29;20056;-82
2023/11/23 19:19:11;;;;;;;3.72;1.02;;;;;;;;;;4860205;29;20060;-83
2023/11/23 19:21:41;;;;;;;;;;;;;;;;;;4872698;29;20501;-83
2023/11/23 19:24:12;;;;;;;2.50;0.95;;;;;;;;;;4859225;29;19935;-82
2023/11/23 19:26:44;;;;;;;3.78;1.17;;;;;;;;;;4872084;29;20053;-82
2023/11/23 19:29:14;;;;;;;16.58;6.22;;;;;;;;;;4879641;29;20519;-82
2023/11/23 19:31:50;;;;;;;10.73;1.48;;;;;;;;;;4857254;29;20527;-82
2023/11/23 19:34:22;;;;;;;10.35;4.05;;;;;;;;;;4878224;29;20710;-84
2023/11/23 19:36:54;;;;;;;2.85;1.67;;;;;;;;;;4874310;29;20387;-82
2023/11/23 19:39:26;;;;;;;2.75;1.02;;;;;;;;;;4873416;29;20045;-83
2023/11/23 19:41:59;;;;;;;;;;;;;;;;;;4859859;29;20410;-83
2023/11/23 19:44:29;;;;;;;4.97;1.55;;;;;;;;;;4858916;29;19928;-84
2023/11/23 19:47:00;;;;;;;5.55;1.13;;;;;;;;;;4860592;29;20054;-83
2023/11/23 19:49:32;;;;;;;2.20;1.20;;;;;;;;;;4877230;29;20053;-85
2023/11/23 19:52:13;;;;;;;2.00;0.93;;;;;;;;;;4876019;29;20078;-84
2023/11/23 19:54:44;;;;;;;2.55;0.90;;;;;;;;;;4875535;29;20045;-84
2023/11/23 19:57:15;;;;;;;8.40;1.33;;;;;;;;;;4876346;29;20040;-83
2023/11/23 19:59:48;;;;;;;2.97;1.00;;;;;;;;;;4877240;29;20053;-80
2023/11/23 20:02:18;;;;;;;1.70;0.95;;;;;;;;;;4877235;29;20056;-83
2023/11/23 20:04:48;;;;;;;1.88;1.02;;;;;;;;;;4876919;29;20060;-83
2023/11/23 20:07:18;;;;;;;1.40;0.90;;;;;;;;;;4877254;29;20049;-83
2023/11/23 20:09:50;;;;;;;2.35;1.30;;;;;;;;;;4876921;29;20048;-83
2023/11/23 20:12:20;;;;;;;2.13;0.75;;;;;;;;;;4860945;29;20076;-84
2023/11/23 20:14:52;;;;;;;4.05;1.65;;;;;;;;;;4876941;29;20052;-85
2023/11/23 20:17:25;;;;;;;3.55;1.67;;;;;;;;;;4861178;29;20119;-83
2023/11/23 20:19:55;;;;;;;6.05;1.70;;;;;;;;;;4860679;29;20052;-84
2023/11/23 20:22:25;;;;;;;2.72;0.90;;;;;;;;;;4876824;29;20057;-83
2023/11/23 20:24:56;;;;;;;1.63;1.10;;;;;;;;;;4878932;29;20045;-85
2023/11/23 20:27:26;;;;;;;2.95;1.13;;;;;;;;;;4883047;29;20045;-83
2023/11/23 20:29:59;;;;;;;4.65;1.65;;;;;;;;;;4883044;29;20041;-83
2023/11/23 20:32:30;;;;;;;1.40;0.93;;;;;;;;;;4883314;29;20048;-87
2023/11/23 20:35:03;;;;;;;1.70;1.00;;;;;;;;;;4882743;29;20044;-84
2023/11/23 20:37:34;;;;;;;2.47;1.00;;;;;;;;;;4865771;29;20049;-84
2023/11/23 20:40:05;;;;;;;2.88;1.10;;;;;;;;;;4882907;29;20044;-85
2023/11/23 20:42:36;;;;;;;3.08;0.90;;;;;;;;;;4883093;29;20048;-87
2023/11/23 20:45:07;;;;;;;3.03;1.10;;;;;;;;;;4882914;29;20064;-85
2023/11/23 20:47:38;;;;;;;2.17;1.10;;;;;;;;;;4883133;29;20057;-85
2023/11/23 20:50:09;;;;;;;12.75;5.80;;;;;;;;;;4881560;29;20052;-83
2023/11/23 20:52:40;;;;;;;2.53;1.25;;;;;;;;;;4902042;29;20070;-84
2023/11/23 20:55:13;;;;;;;4.05;1.88;;;;;;;;;;4876269;29;20040;-83
2023/11/23 20:57:46;;;;;;;2.55;0.98;;;;;;;;;;4884621;29;20515;-84
2023/11/23 21:00:17;;;;;;;2.78;1.13;;;;;;;;;;4867995;29;20077;-83
2023/11/23 21:02:48;;;;;;;1.92;0.90;;;;;;;;;;4891627;29;20522;-82
2023/11/23 21:05:19;;;;;;;2.75;0.93;;;;;;;;;;4893393;29;20514;-82
2023/11/23 21:07:51;;;;;;;2.88;0.80;;;;;;;;;;4888836;29;20061;-83
2023/11/23 21:10:23;;;;;;;2.95;1.10;;;;;;;;;;4884550;29;20057;-83
2023/11/23 21:12:53;;;;;;;2.42;1.35;;;;;;;;;;4869148;29;20049;-83
2023/11/23 21:15:23;;;;;;;3.63;1.10;;;;;;;;;;4883354;29;20062;-83
2023/11/23 21:17:53;;;;;;;3.78;1.02;;;;;;;;;;4895787;29;20492;-83
2023/11/23 21:20:23;;;;;;;2.47;1.20;;;;;;;;;;4897411;29;20040;-83
2023/11/23 21:22:52;;;;;;;3.33;1.50;;;;;;;;;;4891620;29;20044;-83
2023/11/23 21:25:23;;;;;;;4.55;1.15;;;;;;;;;;4885900;29;20059;-85
2023/11/23 21:27:55;;;;;;;2.33;1.13;;;;;;;;;;4866931;29;20056;-86
2023/11/23 21:30:26;;;;;;;6.18;1.05;;;;;;;;;;4884378;29;20045;-85
2023/11/23 21:32:56;;;;;;;4.18;1.13;;;;;;;;;;4895352;29;20044;-83
2023/11/23 21:35:32;;;;;;;4.05;1.10;;;;;;;;;;4881818;29;20063;-83
2023/11/23 21:38:04;;;;;;;6.55;1.23;;;;;;;;;;4895199;29;20045;-84
2023/11/23 21:40:36;;;;;;;2.85;0.90;;;;;;;;;;4866593;29;20400;-83
2023/11/23 21:43:06;;;;;;;1.20;0.80;;;;;;;;;;4880876;29;20049;-83
2023/11/23 21:45:37;;;;;;;3.83;1.00;;;;;;;;;;4880745;29;20493;-85
2023/11/23 21:48:07;;;;;;;1.13;0.73;;;;;;;;;;4879008;29;20076;-84
2023/11/23 21:50:36;;;;;;;2.88;0.77;;;;;;;;;;4880662;29;20052;-83
2023/11/23 21:53:06;;;;;;;4.45;0.80;;;;;;;;;;4880913;29;20421;-83
2023/11/23 21:55:37;;;;;;;5.97;1.00;;;;;;;;;;4880782;29;20045;-83
2023/11/23 21:58:07;;;;;;;3.35;1.13;;;;;;;;;;4863015;29;20057;-85
2023/11/23 22:00:38;;;;;;;2.97;0.85;;;;;;;;;;4880605;29;20048;-83
2023/11/23 22:03:09;;;;;;;5.03;1.00;;;;;;;;;;4880606;29;20408;-85
2023/11/23 22:05:39;;;;;;;6.60;1.17;;;;;;;;;;4880343;29;20068;-83
2023/11/23 22:08:09;;;;;;;2.70;0.90;;;;;;;;;;4881541;29;20052;-83
2023/11/23 22:10:39;;;;;;;2.35;1.23;;;;;;;;;;4864395;29;20071;-83
2023/11/23 22:13:14;;;;;;;5.00;1.00;;;;;;;;;;4880681;29;20064;-80
2023/11/23 22:15:44;;;;;;;5.28;1.00;;;;;;;;;;4881012;29;20053;-82
2023/11/23 22:18:15;;;;;;;2.47;0.93;;;;;;;;;;4880341;29;20541;-83
2023/11/23 22:20:46;;;;;;;3.30;1.10;;;;;;;;;;4878709;29;20053;-82
2023/11/23 22:23:16;;;;;;;5.90;1.10;;;;;;;;;;4862168;29;20053;-84
2023/11/23 22:25:46;;;;;;;4.55;0.95;;;;;;;;;;4878830;29;20045;-85
2023/11/23 22:28:17;;;;;;;3.03;0.90;;;;;;;;;;4878763;29;20048;-82
2023/11/23 22:30:47;;;;;;;3.88;1.23;;;;;;;;;;4878377;29;20049;-82
2023/11/23 22:33:19;;;;;;;4.90;0.98;;;;;;;;;;4868016;29;20055;-82
2023/11/23 22:35:50;;;;;;;3.58;1.20;;;;;;;;;;4877561;29;20057;-85
2023/11/23 22:38:22;;;;;;;2.85;1.08;;;;;;;;;;4878800;29;20086;-81
2023/11/23 22:40:53;;;;;;;2.45;1.08;;;;;;;;;;4861967;29;20053;-82
2023/11/23 22:43:24;;;;;;;2.55;1.02;;;;;;;;;;4899418;29;20361;-85
2023/11/23 22:45:56;;;;;;;6.10;1.02;;;;;;;;;;4899008;29;20044;-82
2023/11/23 22:48:27;;;;;;;2.80;0.88;;;;;;;;;;4880819;29;20481;-84
2023/11/23 22:50:57;;;;;;;4.18;0.95;;;;;;;;;;4881053;29;20055;-85
2023/11/23 22:53:28;;;;;;;8.65;1.02;;;;;;;;;;4899499;29;20044;-83
2023/11/23 22:55:59;;;;;;;2.90;1.13;;;;;;;;;;4898935;29;20056;-84
2023/11/23 22:58:29;;;;;;;4.60;1.10;;;;;;;;;;4899586;29;20502;-83
2023/11/23 23:01:01;;;;;;;2.53;0.80;;;;;;;;;;4899450;29;20048;-83
2023/11/23 23:03:31;;;;;;;4.75;1.00;;;;;;;;;;4882194;29;20060;-83
2023/11/23 23:06:05;;;;;;;5.35;1.08;;;;;;;;;;4899111;29;20052;-82
2023/11/23 23:08:38;;;;;;;7.30;1.00;;;;;;;;;;4898564;29;20055;-82
2023/11/23 23:11:09;;;;;;;5.10;1.00;;;;;;;;;;4898539;29;20048;-83
2023/11/23 23:13:40;;;;;;;5.22;1.35;;;;;;;;;;4899188;29;20049;-83
2023/11/23 23:16:10;;;;;;;3.22;0.88;;;;;;;;;;4898731;29;20052;-82
2023/11/23 23:18:42;;;;;;;3.25;1.27;;;;;;;;;;4891297;29;20052;-83
2023/11/23 23:21:12;;;;;;;4.75;1.10;;;;;;;;;;4896992;29;20503;-85
2023/11/23 23:23:42;;;;;;;3.92;1.23;;;;;;;;;;4890992;29;20487;-84
2023/11/23 23:26:12;;;;;;;4.43;2.05;;;;;;;;;;4896638;29;20526;-82
2023/11/23 23:28:42;;;;;;;5.50;1.42;;;;;;;;;;4866224;29;20059;-83
2023/11/23 23:31:12;;;;;;;3.25;1.30;;;;;;;;;;4895827;29;20037;-81
2023/11/23 23:33:42;;;;;;;3.47;1.25;;;;;;;;;;4892109;29;20052;-84
2023/11/23 23:36:14;;;;;;;6.30;1.25;;;;;;;;;;4870127;29;20048;-83
2023/11/23 23:38:44;;;;;;;7.13;1.10;;;;;;;;;;4862820;29;20049;-84
2023/11/23 23:41:14;;;;;;;1.88;0.90;;;;;;;;;;4882223;29;20041;-83
2023/11/23 23:43:45;;;;;;;6.25;1.20;;;;;;;;;;4884390;29;20789;-84
2023/11/23 23:46:16;;;;;;;3.33;1.10;;;;;;;;;;4885692;29;20488;-84
2023/11/23 23:48:46;;;;;;;2.20;1.02;;;;;;;;;;4887165;29;20060;-84
2023/11/23 23:51:18;;;;;;;2.25;1.23;;;;;;;;;;4890633;29;20076;-83
2023/11/23 23:53:49;;;;;;;7.80;1.00;;;;;;;;;;4886783;29;20515;-83
2023/11/23 23:56:18;;;;;;;3.38;1.10;;;;;;;;;;4873203;29;20051;-84
2023/11/23 23:58:49;;;;;;;4.90;1.67;;;;;;;;;;4870915;29;20049;-83
